Terminal Aerodrome Forecast
Issued by NWS Cleveland, OH

Home | Current Version | Previous Version | Graphics & Text | Print | Product List | Glossary On
Versions: 1 2 3 4 5 6 7 8 9 10 11 12 13 14 15 16 17 18 19 20 21 22 23 24
493
FTUS41 KCLE 181145
TAFYNG
TAF
KYNG 181145Z 1812/1912 24006KT P6SM BKN025 OVC035
     FM181800 21006KT P6SM SCT035
     FM182100 16006KT P6SM BKN250
     FM191000 18006KT P6SM OVC100=

USA.gov is the U.S. government's official web portal to all federal, state and local government web resources and services.